Terminal Aerodrome Forecast
Issued by NWS

Home | Current Version | Previous Version | Text Only | Print | Product List | Glossary On
Versions: 1 2 3 4 5 6 7 8 9 10 11 12 13 14 15
888
FTUS43 KIND 130520
TAFHUF
TAF
KHUF 130520Z 1306/1406 32012KT P6SM FEW040
     FM131300 31009KT P6SM FEW250
     FM132100 32006KT P6SM BKN250
     FM140400 10004KT P6SM SCT100 OVC250=

USA.gov is the U.S. government's official web portal to all federal, state and local government web resources and services.